aviador You're here:

KPQL Decoded Metar

PASCAGOULA in MS, USA
Report Time2017-11-20 21:53:00
UTC Time2017-11-20 22:46:52
Flight Rules vfr VFR
Wind250° at 04 kt
W.Decomp.*RWY 17: 0.8 kt HW 3.9 kt RCW
W.Rank250° ranks 33
Current wind is below 250° avg. (4.9)
Visibility9999 m
Phenomena:N/A
Clouds:N/A
Expected CloudBase > 3,200 ft AGL from Temp-Dew spread
CeilingNone
Temp14°C (ISA -1)
Dew Point06°C (59% RH)
AAT11.7°C
QNH1021 hPa
Density Alt-236 ft
Elevation20 ft
Report Wrong Elevation
Raw Report
KPQL 202153Z 25004KT 10SM CLR 14/06 A3014 RMK AO2 SLP207
T01440056=

Extra information for KPQL:More info

Metar Taf Metar & Taf Last 4 Metars F.Rules Stats Wind Profile Meteogram Temp Stats Airport Information Weather charts Add Link Nearby VenuesMetar ALERT Operation Metar Decoded Social comments

AIRNAV info for KPQL